KVVV

Details ICAO KVVV
Name ORTONVILLE MUNI MARTINSON FLD
Region United States
Timezone America/Chicago (UTC-6.0)
Plans Departing 0
Arriving 1
Stats Elevation 1,100 ft / 335 m (AMSL)
Location 45.303683° -96.424738°
Runways 2
Magnetic Variation 2.728° E
Sunrise 2017-12-18 14:01:49 UTC / 2017-12-18 08:01:49 Local
Sunset 2017-12-18 22:45:46 UTC / 2017-12-18 16:45:46 Local
Advertisement - Login to hide

Runways

ID Width Length Bearing (true) Bearing (mag) Surface Threshold Offset Overrun Length
04 300 ft / 91 m 2,150 ft / 655 m 46.86° 44.13° Grass 0 ft / 0 m 0 ft / 0 m
16 75 ft / 23 m 3,420 ft / 1,042 m 168.58° 165.85° Asphalt 0 ft / 0 m 0 ft / 0 m
22 300 ft / 91 m 2,150 ft / 655 m 226.86° 224.13° Grass 0 ft / 0 m 0 ft / 0 m
34 75 ft / 23 m 3,420 ft / 1,042 m 348.58° 345.85° Asphalt 0 ft / 0 m 0 ft / 0 m

Map

Weather


0- 5 10 15 20 25 30 35+ Temperature / ° C

Clouds and Precipitation
Forecast for 2017-12-18 06:00 UTC. Updated 2 hours ago

Ground ~20,000 ft ~40,000 ft Winds

METAR

KVVV 180655Z AUTO 18006KT 10SM SCT070 OVC100 00/M02 A2982 RMK AO2 TSNO

TAF

Not found

Frequencies

Unicom 122.80 MHz UNICOM
Warning: Do not use this data for real-world aviation or navigation. No guarantee of current accuracy is given.